sensor_id;sensor_type;location;lat;lon;timestamp;P1;durP1;ratioP1;P2;durP2;ratioP2
25199;SDS011;33094;48.782;9.162;2022-12-18T02:51:08;96.55;;;33.97;;
25199;SDS011;33094;48.782;9.162;2022-12-18T03:29:15;92.20;;;33.13;;
25199;SDS011;33094;48.782;9.162;2022-12-18T03:49:30;104.53;;;34.25;;
25199;SDS011;33094;48.782;9.162;2022-12-18T04:02:15;95.13;;;33.28;;
25199;SDS011;33094;48.782;9.162;2022-12-18T04:15:32;94.35;;;30.85;;
25199;SDS011;33094;48.782;9.162;2022-12-18T04:21:52;80.97;;;29.95;;
25199;SDS011;33094;48.782;9.162;2022-12-18T04:28:32;86.40;;;30.63;;
25199;SDS011;33094;48.782;9.162;2022-12-18T04:34:54;77.85;;;27.42;;
25199;SDS011;33094;48.782;9.162;2022-12-18T04:37:36;66.65;;;27.08;;
25199;SDS011;33094;48.782;9.162;2022-12-18T04:44:14;70.97;;;25.92;;
25199;SDS011;33094;48.782;9.162;2022-12-18T05:04:26;66.80;;;26.20;;
25199;SDS011;33094;48.782;9.162;2022-12-18T05:07:42;63.22;;;24.60;;
25199;SDS011;33094;48.782;9.162;2022-12-18T05:10:46;63.45;;;24.95;;
25199;SDS011;33094;48.782;9.162;2022-12-18T05:13:43;28.75;;;10.35;;
25199;SDS011;33094;48.782;9.162;2022-12-18T05:16:55;63.58;;;22.58;;
25199;SDS011;33094;48.782;9.162;2022-12-18T05:19:56;72.97;;;24.77;;
25199;SDS011;33094;48.782;9.162;2022-12-18T05:29:02;72.10;;;25.85;;
25199;SDS011;33094;48.782;9.162;2022-12-18T05:38:00;62.10;;;23.60;;
25199;SDS011;33094;48.782;9.162;2022-12-18T05:40:29;61.35;;;22.85;;
25199;SDS011;33094;48.782;9.162;2022-12-18T05:43:04;70.28;;;25.98;;
25199;SDS011;33094;48.782;9.162;2022-12-18T05:45:42;64.57;;;23.85;;
25199;SDS011;33094;48.782;9.162;2022-12-18T05:48:28;64.82;;;24.85;;
25199;SDS011;33094;48.782;9.162;2022-12-18T05:54:18;53.28;;;23.08;;
25199;SDS011;33094;48.782;9.162;2022-12-18T05:57:04;63.70;;;24.38;;
25199;SDS011;33094;48.782;9.162;2022-12-18T06:00:00;73.88;;;26.80;;
25199;SDS011;33094;48.782;9.162;2022-12-18T06:02:57;67.22;;;25.55;;
25199;SDS011;33094;48.782;9.162;2022-12-18T06:05:42;10.25;;;4.78;;
25199;SDS011;33094;48.782;9.162;2022-12-18T06:08:22;68.13;;;26.02;;
25199;SDS011;33094;48.782;9.162;2022-12-18T06:11:15;75.90;;;27.10;;
25199;SDS011;33094;48.782;9.162;2022-12-18T06:13:51;68.40;;;26.10;;
25199;SDS011;33094;48.782;9.162;2022-12-18T06:16:45;56.63;;;18.95;;
25199;SDS011;33094;48.782;9.162;2022-12-18T06:22:40;42.47;;;18.05;;
25199;SDS011;33094;48.782;9.162;2022-12-18T06:28:22;61.75;;;24.65;;
25199;SDS011;33094;48.782;9.162;2022-12-18T06:31:18;30.60;;;11.18;;
25199;SDS011;33094;48.782;9.162;2022-12-18T06:34:21;51.15;;;21.33;;
25199;SDS011;33094;48.782;9.162;2022-12-18T06:41:20;59.53;;;24.00;;
25199;SDS011;33094;48.782;9.162;2022-12-18T06:44:21;64.55;;;22.60;;
25199;SDS011;33094;48.782;9.162;2022-12-18T06:50:32;56.65;;;21.60;;
25199;SDS011;33094;48.782;9.162;2022-12-18T06:53:00;71.80;;;25.60;;
25199;SDS011;33094;48.782;9.162;2022-12-18T07:05:48;54.92;;;23.48;;
25199;SDS011;33094;48.782;9.162;2022-12-18T07:08:16;43.03;;;15.95;;
25199;SDS011;33094;48.782;9.162;2022-12-18T07:10:42;30.45;;;12.10;;
25199;SDS011;33094;48.782;9.162;2022-12-18T07:13:21;57.65;;;22.80;;
25199;SDS011;33094;48.782;9.162;2022-12-18T07:15:52;66.18;;;23.15;;
25199;SDS011;33094;48.782;9.162;2022-12-18T07:18:28;80.18;;;27.25;;
25199;SDS011;33094;48.782;9.162;2022-12-18T07:21:08;69.32;;;25.83;;
25199;SDS011;33094;48.782;9.162;2022-12-18T07:23:41;71.85;;;26.55;;
25199;SDS011;33094;48.782;9.162;2022-12-18T07:26:20;78.40;;;27.27;;
25199;SDS011;33094;48.782;9.162;2022-12-18T07:28:54;70.35;;;26.45;;
25199;SDS011;33094;48.782;9.162;2022-12-18T07:31:29;79.43;;;29.00;;
25199;SDS011;33094;48.782;9.162;2022-12-18T07:34:05;77.35;;;25.42;;
25199;SDS011;33094;48.782;9.162;2022-12-18T07:36:40;63.58;;;23.63;;
25199;SDS011;33094;48.782;9.162;2022-12-18T07:39:18;48.28;;;17.95;;
25199;SDS011;33094;48.782;9.162;2022-12-18T07:41:54;69.85;;;24.98;;
25199;SDS011;33094;48.782;9.162;2022-12-18T07:44:39;65.65;;;23.73;;
25199;SDS011;33094;48.782;9.162;2022-12-18T07:47:20;70.05;;;26.95;;
25199;SDS011;33094;48.782;9.162;2022-12-18T07:49:47;73.47;;;28.20;;
25199;SDS011;33094;48.782;9.162;2022-12-18T07:52:18;72.35;;;25.45;;
25199;SDS011;33094;48.782;9.162;2022-12-18T07:55:04;71.20;;;25.52;;
25199;SDS011;33094;48.782;9.162;2022-12-18T07:57:33;77.18;;;26.83;;
25199;SDS011;33094;48.782;9.162;2022-12-18T07:59:59;69.93;;;27.27;;
25199;SDS011;33094;48.782;9.162;2022-12-18T08:02:25;69.07;;;24.67;;
25199;SDS011;33094;48.782;9.162;2022-12-18T08:04:54;75.25;;;26.45;;
25199;SDS011;33094;48.782;9.162;2022-12-18T08:07:19;72.43;;;26.42;;
25199;SDS011;33094;48.782;9.162;2022-12-18T08:09:45;74.90;;;26.27;;
25199;SDS011;33094;48.782;9.162;2022-12-18T08:12:11;66.80;;;26.17;;
25199;SDS011;33094;48.782;9.162;2022-12-18T08:14:37;70.00;;;27.08;;
25199;SDS011;33094;48.782;9.162;2022-12-18T08:17:03;70.15;;;25.55;;
25199;SDS011;33094;48.782;9.162;2022-12-18T08:19:29;77.50;;;28.80;;
25199;SDS011;33094;48.782;9.162;2022-12-18T08:21:55;70.43;;;27.92;;
25199;SDS011;33094;48.782;9.162;2022-12-18T08:24:22;75.90;;;27.42;;
25199;SDS011;33094;48.782;9.162;2022-12-18T08:26:48;76.88;;;27.63;;
25199;SDS011;33094;48.782;9.162;2022-12-18T08:29:14;76.22;;;27.27;;
25199;SDS011;33094;48.782;9.162;2022-12-18T08:31:40;72.03;;;26.37;;
25199;SDS011;33094;48.782;9.162;2022-12-18T08:34:07;79.03;;;30.60;;
25199;SDS011;33094;48.782;9.162;2022-12-18T08:36:33;70.88;;;26.13;;
25199;SDS011;33094;48.782;9.162;2022-12-18T08:38:59;77.82;;;29.55;;
25199;SDS011;33094;48.782;9.162;2022-12-18T08:41:25;74.43;;;28.53;;
25199;SDS011;33094;48.782;9.162;2022-12-18T08:43:51;76.15;;;28.75;;
25199;SDS011;33094;48.782;9.162;2022-12-18T08:46:37;74.38;;;28.27;;
25199;SDS011;33094;48.782;9.162;2022-12-18T08:49:13;73.80;;;31.02;;
25199;SDS011;33094;48.782;9.162;2022-12-18T08:51:39;75.80;;;29.20;;
25199;SDS011;33094;48.782;9.162;2022-12-18T08:54:06;102.03;;;36.10;;
25199;SDS011;33094;48.782;9.162;2022-12-18T08:56:32;61.60;;;25.75;;
25199;SDS011;33094;48.782;9.162;2022-12-18T08:58:59;88.65;;;33.72;;
25199;SDS011;33094;48.782;9.162;2022-12-18T09:01:27;75.15;;;29.83;;
25199;SDS011;33094;48.782;9.162;2022-12-18T09:03:53;57.70;;;21.23;;
25199;SDS011;33094;48.782;9.162;2022-12-18T09:06:22;93.10;;;30.13;;
25199;SDS011;33094;48.782;9.162;2022-12-18T09:14:20;78.28;;;31.05;;
25199;SDS011;33094;48.782;9.162;2022-12-18T09:16:47;90.70;;;32.03;;
25199;SDS011;33094;48.782;9.162;2022-12-18T09:19:13;78.80;;;31.20;;
25199;SDS011;33094;48.782;9.162;2022-12-18T09:21:39;87.63;;;31.88;;
25199;SDS011;33094;48.782;9.162;2022-12-18T09:24:06;86.07;;;30.05;;
25199;SDS011;33094;48.782;9.162;2022-12-18T09:26:32;82.60;;;31.02;;
25199;SDS011;33094;48.782;9.162;2022-12-18T09:28:58;76.67;;;29.87;;
25199;SDS011;33094;48.782;9.162;2022-12-18T09:31:24;83.97;;;27.85;;
25199;SDS011;33094;48.782;9.162;2022-12-18T09:33:50;77.17;;;28.70;;
25199;SDS011;33094;48.782;9.162;2022-12-18T09:36:17;59.20;;;22.42;;
25199;SDS011;33094;48.782;9.162;2022-12-18T09:38:43;70.68;;;28.05;;
25199;SDS011;33094;48.782;9.162;2022-12-18T09:46:46;88.10;;;32.50;;
25199;SDS011;33094;48.782;9.162;2022-12-18T09:49:16;90.20;;;31.30;;
25199;SDS011;33094;48.782;9.162;2022-12-18T09:51:48;81.03;;;29.67;;
25199;SDS011;33094;48.782;9.162;2022-12-18T09:54:24;76.78;;;29.63;;
25199;SDS011;33094;48.782;9.162;2022-12-18T09:56:59;85.25;;;29.85;;
25199;SDS011;33094;48.782;9.162;2022-12-18T09:59:26;90.17;;;30.67;;
25199;SDS011;33094;48.782;9.162;2022-12-18T10:02:17;85.63;;;33.03;;
25199;SDS011;33094;48.782;9.162;2022-12-18T10:04:54;117.53;;;35.67;;
25199;SDS011;33094;48.782;9.162;2022-12-18T10:07:43;97.05;;;34.00;;
25199;SDS011;33094;48.782;9.162;2022-12-18T10:12:51;66.28;;;23.15;;
25199;SDS011;33094;48.782;9.162;2022-12-18T10:15:27;74.90;;;30.40;;
25199;SDS011;33094;48.782;9.162;2022-12-18T10:21:05;83.85;;;30.33;;
25199;SDS011;33094;48.782;9.162;2022-12-18T10:23:45;76.05;;;28.23;;
25199;SDS011;33094;48.782;9.162;2022-12-18T10:26:24;72.05;;;28.50;;
25199;SDS011;33094;48.782;9.162;2022-12-18T10:28:50;72.32;;;28.45;;
25199;SDS011;33094;48.782;9.162;2022-12-18T10:31:19;68.57;;;28.02;;
25199;SDS011;33094;48.782;9.162;2022-12-18T10:33:47;73.82;;;28.60;;
25199;SDS011;33094;48.782;9.162;2022-12-18T10:36:13;79.05;;;31.15;;
25199;SDS011;33094;48.782;9.162;2022-12-18T10:38:39;82.30;;;30.25;;
25199;SDS011;33094;48.782;9.162;2022-12-18T10:43:46;73.90;;;27.35;;
25199;SDS011;33094;48.782;9.162;2022-12-18T10:46:15;83.78;;;29.08;;
25199;SDS011;33094;48.782;9.162;2022-12-18T10:48:50;65.15;;;26.00;;
25199;SDS011;33094;48.782;9.162;2022-12-18T10:54:21;74.32;;;27.60;;
25199;SDS011;33094;48.782;9.162;2022-12-18T10:56:48;48.00;;;20.60;;
25199;SDS011;33094;48.782;9.162;2022-12-18T10:59:15;61.70;;;24.45;;
25199;SDS011;33094;48.782;9.162;2022-12-18T11:04:22;46.33;;;19.92;;
25199;SDS011;33094;48.782;9.162;2022-12-18T11:09:25;61.88;;;29.50;;
25199;SDS011;33094;48.782;9.162;2022-12-18T11:11:53;60.42;;;27.42;;
25199;SDS011;33094;48.782;9.162;2022-12-18T11:14:23;72.20;;;31.15;;
25199;SDS011;33094;48.782;9.162;2022-12-18T11:16:50;64.15;;;30.88;;
25199;SDS011;33094;48.782;9.162;2022-12-18T11:19:21;66.40;;;31.15;;
25199;SDS011;33094;48.782;9.162;2022-12-18T11:21:55;59.75;;;28.95;;
25199;SDS011;33094;48.782;9.162;2022-12-18T11:24:31;61.70;;;31.27;;
25199;SDS011;33094;48.782;9.162;2022-12-18T11:27:03;61.22;;;29.13;;
25199;SDS011;33094;48.782;9.162;2022-12-18T11:29:32;57.33;;;29.63;;
25199;SDS011;33094;48.782;9.162;2022-12-18T11:32:19;58.40;;;29.05;;
25199;SDS011;33094;48.782;9.162;2022-12-18T11:34:52;52.10;;;25.88;;
25199;SDS011;33094;48.782;9.162;2022-12-18T11:37:24;54.30;;;25.75;;
25199;SDS011;33094;48.782;9.162;2022-12-18T11:40:35;52.20;;;26.17;;
25199;SDS011;33094;48.782;9.162;2022-12-18T11:42:45;52.95;;;24.75;;
25199;SDS011;33094;48.782;9.162;2022-12-18T11:45:33;49.95;;;23.95;;
25199;SDS011;33094;48.782;9.162;2022-12-18T11:48:08;50.22;;;23.33;;
25199;SDS011;33094;48.782;9.162;2022-12-18T11:50:53;50.28;;;23.65;;
25199;SDS011;33094;48.782;9.162;2022-12-18T11:53:21;46.22;;;18.00;;
25199;SDS011;33094;48.782;9.162;2022-12-18T12:01:51;51.67;;;20.38;;
25199;SDS011;33094;48.782;9.162;2022-12-18T12:15:13;56.38;;;23.42;;
25199;SDS011;33094;48.782;9.162;2022-12-18T12:20:21;57.05;;;23.20;;
25199;SDS011;33094;48.782;9.162;2022-12-18T12:25:44;55.20;;;21.17;;
25199;SDS011;33094;48.782;9.162;2022-12-18T12:34:06;59.03;;;23.88;;
25199;SDS011;33094;48.782;9.162;2022-12-18T12:36:49;56.47;;;24.63;;
25199;SDS011;33094;48.782;9.162;2022-12-18T12:39:40;55.33;;;22.88;;
25199;SDS011;33094;48.782;9.162;2022-12-18T12:42:41;63.17;;;25.00;;
25199;SDS011;33094;48.782;9.162;2022-12-18T12:45:56;57.97;;;22.77;;
25199;SDS011;33094;48.782;9.162;2022-12-18T12:50:54;59.17;;;24.63;;
25199;SDS011;33094;48.782;9.162;2022-12-18T12:55:58;47.30;;;21.48;;
25199;SDS011;33094;48.782;9.162;2022-12-18T13:08:56;62.80;;;24.75;;
25199;SDS011;33094;48.782;9.162;2022-12-18T13:11:36;58.22;;;22.67;;
25199;SDS011;33094;48.782;9.162;2022-12-18T13:14:31;44.88;;;19.27;;
25199;SDS011;33094;48.782;9.162;2022-12-18T13:19:42;51.95;;;22.38;;
25199;SDS011;33094;48.782;9.162;2022-12-18T13:22:24;65.63;;;24.52;;
25199;SDS011;33094;48.782;9.162;2022-12-18T13:24:55;63.85;;;23.95;;
25199;SDS011;33094;48.782;9.162;2022-12-18T13:41:04;67.82;;;23.27;;
25199;SDS011;33094;48.782;9.162;2022-12-18T13:43:51;65.72;;;24.27;;
25199;SDS011;33094;48.782;9.162;2022-12-18T13:48:49;68.70;;;24.25;;
25199;SDS011;33094;48.782;9.162;2022-12-18T13:51:17;62.53;;;26.30;;
25199;SDS011;33094;48.782;9.162;2022-12-18T13:53:49;64.88;;;23.45;;
25199;SDS011;33094;48.782;9.162;2022-12-18T13:56:25;70.93;;;25.35;;
25199;SDS011;33094;48.782;9.162;2022-12-18T13:59:08;65.68;;;23.83;;
25199;SDS011;33094;48.782;9.162;2022-12-18T14:01:48;62.65;;;25.85;;
25199;SDS011;33094;48.782;9.162;2022-12-18T14:06:49;71.10;;;28.05;;
25199;SDS011;33094;48.782;9.162;2022-12-18T14:09:23;66.88;;;26.25;;
25199;SDS011;33094;48.782;9.162;2022-12-18T14:11:51;73.35;;;28.35;;
25199;SDS011;33094;48.782;9.162;2022-12-18T14:17:08;66.40;;;24.85;;
25199;SDS011;33094;48.782;9.162;2022-12-18T14:19:35;71.10;;;27.92;;
25199;SDS011;33094;48.782;9.162;2022-12-18T14:22:01;71.95;;;29.13;;
25199;SDS011;33094;48.782;9.162;2022-12-18T14:24:27;69.28;;;27.55;;
25199;SDS011;33094;48.782;9.162;2022-12-18T14:26:57;72.30;;;28.45;;
25199;SDS011;33094;48.782;9.162;2022-12-18T14:29:44;70.97;;;27.35;;
25199;SDS011;33094;48.782;9.162;2022-12-18T14:32:11;74.07;;;27.37;;
25199;SDS011;33094;48.782;9.162;2022-12-18T14:34:41;79.80;;;28.88;;
25199;SDS011;33094;48.782;9.162;2022-12-18T14:37:09;74.55;;;28.40;;
25199;SDS011;33094;48.782;9.162;2022-12-18T14:39:36;83.15;;;31.77;;
25199;SDS011;33094;48.782;9.162;2022-12-18T14:42:10;69.25;;;27.65;;
25199;SDS011;33094;48.782;9.162;2022-12-18T14:44:36;75.18;;;29.23;;
25199;SDS011;33094;48.782;9.162;2022-12-18T14:47:02;78.03;;;28.00;;
25199;SDS011;33094;48.782;9.162;2022-12-18T14:49:29;78.25;;;29.17;;
25199;SDS011;33094;48.782;9.162;2022-12-18T14:52:05;69.28;;;26.25;;
25199;SDS011;33094;48.782;9.162;2022-12-18T14:54:45;67.50;;;27.38;;
25199;SDS011;33094;48.782;9.162;2022-12-18T14:59:49;70.18;;;27.00;;
25199;SDS011;33094;48.782;9.162;2022-12-18T15:02:23;77.45;;;30.17;;
25199;SDS011;33094;48.782;9.162;2022-12-18T15:05:03;76.30;;;28.00;;
25199;SDS011;33094;48.782;9.162;2022-12-18T15:07:42;72.70;;;30.15;;
25199;SDS011;33094;48.782;9.162;2022-12-18T15:18:05;75.03;;;26.77;;
25199;SDS011;33094;48.782;9.162;2022-12-18T15:20:50;80.35;;;28.98;;
25199;SDS011;33094;48.782;9.162;2022-12-18T15:26:34;77.40;;;29.38;;
25199;SDS011;33094;48.782;9.162;2022-12-18T15:29:32;85.53;;;29.75;;
25199;SDS011;33094;48.782;9.162;2022-12-18T15:32:01;83.45;;;29.27;;
25199;SDS011;33094;48.782;9.162;2022-12-18T15:34:33;86.00;;;30.33;;
25199;SDS011;33094;48.782;9.162;2022-12-18T15:37:01;86.05;;;30.33;;
25199;SDS011;33094;48.782;9.162;2022-12-18T15:39:29;80.50;;;28.88;;
25199;SDS011;33094;48.782;9.162;2022-12-18T15:42:07;82.88;;;29.50;;
25199;SDS011;33094;48.782;9.162;2022-12-18T15:44:56;84.32;;;31.02;;
25199;SDS011;33094;48.782;9.162;2022-12-18T15:47:47;84.43;;;29.13;;
25199;SDS011;33094;48.782;9.162;2022-12-18T15:50:15;86.97;;;29.00;;
25199;SDS011;33094;48.782;9.162;2022-12-18T15:52:41;57.55;;;22.10;;
25199;SDS011;33094;48.782;9.162;2022-12-18T15:55:23;73.97;;;29.25;;
25199;SDS011;33094;48.782;9.162;2022-12-18T15:58:10;81.22;;;29.00;;
25199;SDS011;33094;48.782;9.162;2022-12-18T16:00:37;84.43;;;31.23;;
25199;SDS011;33094;48.782;9.162;2022-12-18T16:31:07;81.03;;;28.77;;
25199;SDS011;33094;48.782;9.162;2022-12-18T16:50:20;75.18;;;26.85;;
25199;SDS011;33094;48.782;9.162;2022-12-18T16:52:48;75.30;;;24.58;;
25199;SDS011;33094;48.782;9.162;2022-12-18T16:58:54;69.45;;;28.23;;
25199;SDS011;33094;48.782;9.162;2022-12-18T17:01:34;74.75;;;30.00;;
25199;SDS011;33094;48.782;9.162;2022-12-18T17:04:07;92.28;;;33.30;;
25199;SDS011;33094;48.782;9.162;2022-12-18T17:06:49;87.38;;;34.42;;
25199;SDS011;33094;48.782;9.162;2022-12-18T17:09:20;80.20;;;31.83;;
25199;SDS011;33094;48.782;9.162;2022-12-18T17:12:11;90.53;;;34.83;;
25199;SDS011;33094;48.782;9.162;2022-12-18T17:14:53;91.60;;;33.30;;
25199;SDS011;33094;48.782;9.162;2022-12-18T17:17:32;91.57;;;33.55;;
25199;SDS011;33094;48.782;9.162;2022-12-18T17:20:10;86.97;;;32.80;;
25199;SDS011;33094;48.782;9.162;2022-12-18T17:22:53;89.32;;;34.10;;
25199;SDS011;33094;48.782;9.162;2022-12-18T17:25:40;91.40;;;34.17;;
25199;SDS011;33094;48.782;9.162;2022-12-18T17:28:34;109.05;;;35.25;;
25199;SDS011;33094;48.782;9.162;2022-12-18T17:33:27;87.80;;;29.93;;
25199;SDS011;33094;48.782;9.162;2022-12-18T17:35:52;93.72;;;33.60;;
25199;SDS011;33094;48.782;9.162;2022-12-18T17:38:18;86.18;;;32.78;;
25199;SDS011;33094;48.782;9.162;2022-12-18T17:40:44;85.70;;;33.55;;
25199;SDS011;33094;48.782;9.162;2022-12-18T17:43:10;98.07;;;35.00;;
25199;SDS011;33094;48.782;9.162;2022-12-18T17:45:36;87.80;;;31.88;;
25199;SDS011;33094;48.782;9.162;2022-12-18T17:48:03;79.88;;;31.42;;
25199;SDS011;33094;48.782;9.162;2022-12-18T17:50:31;80.03;;;29.38;;
25199;SDS011;33094;48.782;9.162;2022-12-18T17:52:58;76.90;;;30.45;;
25199;SDS011;33094;48.782;9.162;2022-12-18T17:55:24;71.82;;;27.27;;
25199;SDS011;33094;48.782;9.162;2022-12-18T17:57:50;67.45;;;25.77;;
25199;SDS011;33094;48.782;9.162;2022-12-18T18:00:16;74.03;;;26.77;;
25199;SDS011;33094;48.782;9.162;2022-12-18T18:02:45;67.00;;;26.13;;
25199;SDS011;33094;48.782;9.162;2022-12-18T18:05:11;70.82;;;23.88;;
25199;SDS011;33094;48.782;9.162;2022-12-18T18:07:37;71.47;;;26.63;;
25199;SDS011;33094;48.782;9.162;2022-12-18T18:10:06;72.22;;;25.95;;
25199;SDS011;33094;48.782;9.162;2022-12-18T18:12:35;64.30;;;21.75;;
25199;SDS011;33094;48.782;9.162;2022-12-18T18:15:19;62.80;;;23.15;;
25199;SDS011;33094;48.782;9.162;2022-12-18T18:17:45;68.10;;;26.90;;
25199;SDS011;33094;48.782;9.162;2022-12-18T18:20:20;64.38;;;23.42;;
25199;SDS011;33094;48.782;9.162;2022-12-18T18:22:45;62.20;;;24.20;;
25199;SDS011;33094;48.782;9.162;2022-12-18T18:25:11;68.85;;;25.20;;
25199;SDS011;33094;48.782;9.162;2022-12-18T18:27:37;70.60;;;23.55;;
25199;SDS011;33094;48.782;9.162;2022-12-18T18:30:03;67.43;;;25.75;;
25199;SDS011;33094;48.782;9.162;2022-12-18T18:32:29;67.13;;;25.63;;
25199;SDS011;33094;48.782;9.162;2022-12-18T18:34:55;59.72;;;19.80;;
25199;SDS011;33094;48.782;9.162;2022-12-18T18:37:21;70.13;;;23.88;;
25199;SDS011;33094;48.782;9.162;2022-12-18T18:39:47;65.85;;;25.30;;
25199;SDS011;33094;48.782;9.162;2022-12-18T18:42:12;61.00;;;25.85;;
25199;SDS011;33094;48.782;9.162;2022-12-18T19:08:44;66.60;;;23.52;;
25199;SDS011;33094;48.782;9.162;2022-12-18T19:11:10;63.88;;;24.27;;
25199;SDS011;33094;48.782;9.162;2022-12-18T19:13:57;70.68;;;26.35;;
25199;SDS011;33094;48.782;9.162;2022-12-18T19:16:23;70.78;;;26.45;;
25199;SDS011;33094;48.782;9.162;2022-12-18T19:18:58;73.25;;;23.20;;
25199;SDS011;33094;48.782;9.162;2022-12-18T19:21:42;87.45;;;30.55;;
25199;SDS011;33094;48.782;9.162;2022-12-18T19:28:26;71.63;;;26.25;;
25199;SDS011;33094;48.782;9.162;2022-12-18T19:38:23;77.88;;;27.00;;
25199;SDS011;33094;48.782;9.162;2022-12-18T19:48:10;53.27;;;22.23;;
25199;SDS011;33094;48.782;9.162;2022-12-18T19:51:06;70.78;;;28.05;;
25199;SDS011;33094;48.782;9.162;2022-12-18T19:59:58;80.70;;;32.10;;
25199;SDS011;33094;48.782;9.162;2022-12-18T20:02:31;80.07;;;28.73;;
25199;SDS011;33094;48.782;9.162;2022-12-18T20:05:00;77.10;;;27.75;;
25199;SDS011;33094;48.782;9.162;2022-12-18T20:07:30;74.68;;;27.83;;
25199;SDS011;33094;48.782;9.162;2022-12-18T20:09:56;77.60;;;29.00;;
25199;SDS011;33094;48.782;9.162;2022-12-18T20:15:32;77.47;;;29.48;;
25199;SDS011;33094;48.782;9.162;2022-12-18T20:18:01;77.80;;;29.95;;
25199;SDS011;33094;48.782;9.162;2022-12-18T20:20:26;78.28;;;29.52;;
25199;SDS011;33094;48.782;9.162;2022-12-18T20:23:05;80.72;;;30.50;;
25199;SDS011;33094;48.782;9.162;2022-12-18T20:25:36;77.18;;;28.30;;
25199;SDS011;33094;48.782;9.162;2022-12-18T20:28:24;73.60;;;28.00;;
25199;SDS011;33094;48.782;9.162;2022-12-18T20:30:58;75.85;;;27.27;;
25199;SDS011;33094;48.782;9.162;2022-12-18T20:33:34;73.80;;;27.77;;
25199;SDS011;33094;48.782;9.162;2022-12-18T20:36:12;87.07;;;32.60;;
25199;SDS011;33094;48.782;9.162;2022-12-18T20:42:08;69.53;;;26.25;;
25199;SDS011;33094;48.782;9.162;2022-12-18T20:45:00;84.40;;;28.23;;
25199;SDS011;33094;48.782;9.162;2022-12-18T20:51:11;68.28;;;27.13;;
25199;SDS011;33094;48.782;9.162;2022-12-18T20:57:32;71.68;;;27.95;;
25199;SDS011;33094;48.782;9.162;2022-12-18T21:04:19;70.45;;;26.55;;
